createdAt,value
2023-02-23T00:01:30.097Z,24.83
2023-02-23T00:03:58.310Z,27.27
2023-02-23T00:06:27.329Z,26.17
2023-02-23T00:08:54.580Z,26.90
2023-02-23T00:11:22.258Z,28.05
2023-02-23T00:13:50.552Z,26.45
2023-02-23T00:16:20.390Z,27.50
2023-02-23T00:18:53.737Z,27.55
2023-02-23T00:23:52.356Z,25.83
2023-02-23T00:26:24.045Z,26.98
2023-02-23T00:28:53.755Z,27.23
2023-02-23T00:31:25.502Z,27.25
2023-02-23T00:33:54.289Z,27.17
2023-02-23T00:36:23.728Z,27.20
2023-02-23T00:38:54.297Z,27.23
2023-02-23T00:41:28.509Z,28.50
2023-02-23T00:44:00.166Z,28.48
2023-02-23T00:46:29.179Z,26.40
2023-02-23T00:48:58.278Z,27.75
2023-02-23T00:51:27.472Z,28.45
2023-02-23T00:53:55.177Z,26.08
2023-02-23T00:56:22.109Z,26.33
2023-02-23T00:58:48.765Z,28.48
2023-02-23T01:01:16.204Z,26.95
2023-02-23T01:03:43.840Z,27.70
2023-02-23T01:06:13.408Z,28.08
2023-02-23T01:08:44.958Z,28.88
2023-02-23T01:11:14.475Z,28.85
2023-02-23T01:13:43.752Z,28.65
2023-02-23T01:16:17.336Z,30.55
2023-02-23T01:18:45.308Z,31.80
2023-02-23T01:21:25.741Z,31.90
2023-02-23T01:23:53.006Z,31.33
2023-02-23T01:26:22.269Z,36.72
2023-02-23T01:28:56.658Z,35.85
2023-02-23T01:31:24.456Z,35.78
2023-02-23T01:33:59.811Z,33.33
2023-02-23T01:36:28.851Z,33.28
2023-02-23T01:38:56.998Z,33.50
2023-02-23T01:41:24.363Z,32.03
2023-02-23T01:44:03.599Z,32.05
2023-02-23T01:46:41.426Z,32.63
2023-02-23T01:49:22.276Z,32.95
2023-02-23T01:51:53.895Z,32.53
2023-02-23T01:54:28.979Z,31.48
2023-02-23T01:56:58.624Z,31.83
2023-02-23T01:59:32.856Z,30.17
2023-02-23T02:01:59.448Z,31.05
2023-02-23T02:04:26.686Z,30.52
2023-02-23T02:06:55.435Z,29.23
2023-02-23T02:09:25.657Z,29.17
2023-02-23T02:11:54.333Z,27.70
2023-02-23T02:14:29.147Z,28.95
2023-02-23T02:17:20.996Z,28.27
2023-02-23T02:20:14.770Z,29.17
2023-02-23T02:23:19.017Z,29.23
2023-02-23T02:28:43.235Z,26.10
2023-02-23T02:31:30.959Z,27.17
2023-02-23T02:34:18.854Z,28.25
2023-02-23T02:37:10.305Z,26.33
2023-02-23T02:39:48.069Z,26.98
2023-02-23T02:42:32.184Z,26.63
2023-02-23T02:45:26.474Z,27.50
2023-02-23T02:48:17.889Z,26.40
2023-02-23T02:50:46.339Z,26.45
2023-02-23T02:53:20.780Z,26.75
2023-02-23T02:55:49.070Z,26.23
2023-02-23T02:58:17.775Z,25.75
2023-02-23T03:01:07.509Z,27.83
2023-02-23T03:03:58.954Z,27.00
2023-02-23T03:06:56.705Z,26.92
2023-02-23T03:09:56.848Z,25.10
2023-02-23T03:12:56.421Z,25.92
2023-02-23T03:16:02.825Z,26.13
2023-02-23T03:19:00.160Z,25.65
2023-02-23T03:21:52.013Z,25.95
2023-02-23T03:25:00.155Z,25.30
2023-02-23T03:27:56.806Z,26.25
2023-02-23T03:30:55.773Z,25.83
2023-02-23T03:34:00.360Z,25.00
2023-02-23T03:36:49.011Z,26.70
2023-02-23T03:39:52.178Z,25.85
2023-02-23T03:42:43.129Z,25.45
2023-02-23T03:45:35.135Z,27.85
2023-02-23T03:48:23.469Z,26.30
2023-02-23T03:51:13.001Z,26.50
2023-02-23T03:54:05.786Z,26.55
2023-02-23T03:56:55.534Z,26.23
2023-02-23T03:59:45.122Z,26.00
2023-02-23T04:02:33.784Z,24.67
2023-02-23T04:05:24.532Z,24.25
2023-02-23T04:08:12.855Z,25.73
2023-02-23T04:11:06.820Z,24.50
2023-02-23T04:16:05.257Z,24.50
2023-02-23T04:18:37.488Z,25.45
2023-02-23T04:21:05.267Z,25.42
2023-02-23T04:23:32.009Z,26.30
2023-02-23T04:25:58.903Z,26.25
2023-02-23T04:28:27.404Z,25.92
2023-02-23T04:30:53.950Z,26.10
2023-02-23T04:33:22.169Z,25.85
2023-02-23T04:35:49.183Z,26.30
2023-02-23T04:38:15.946Z,25.13
2023-02-23T04:40:42.538Z,27.17
2023-02-23T04:43:12.170Z,25.70
2023-02-23T04:45:39.222Z,25.25
2023-02-23T04:48:06.321Z,26.38
2023-02-23T04:50:32.987Z,25.13
2023-02-23T04:52:59.662Z,26.67
2023-02-23T04:55:26.543Z,24.38
2023-02-23T04:57:59.068Z,24.73
2023-02-23T05:00:26.654Z,25.57
2023-02-23T05:02:53.183Z,25.27
2023-02-23T05:05:19.884Z,27.38
2023-02-23T05:07:46.453Z,28.00
2023-02-23T05:10:13.331Z,27.42
2023-02-23T05:12:39.803Z,26.70
2023-02-23T05:15:06.970Z,25.90
2023-02-23T05:17:33.507Z,26.90
2023-02-23T05:19:59.988Z,25.95
2023-02-23T05:22:26.452Z,25.48
2023-02-23T05:24:52.917Z,26.83
2023-02-23T05:27:19.481Z,26.23
2023-02-23T05:29:45.988Z,25.13
2023-02-23T05:32:12.610Z,27.10
2023-02-23T05:34:39.330Z,26.50
2023-02-23T05:37:06.335Z,25.42
2023-02-23T05:39:32.917Z,25.38
2023-02-23T05:41:59.546Z,26.02
2023-02-23T05:44:26.392Z,25.90
2023-02-23T05:46:53.242Z,24.42
2023-02-23T05:49:19.797Z,23.02
2023-02-23T05:51:46.265Z,25.45
2023-02-23T05:54:14.108Z,25.15
2023-02-23T05:56:42.279Z,24.35
2023-02-23T05:59:08.819Z,25.90
2023-02-23T06:01:35.558Z,25.40
2023-02-23T06:04:02.800Z,24.80
2023-02-23T06:06:30.059Z,25.50
2023-02-23T06:08:56.550Z,26.48
2023-02-23T06:11:23.431Z,25.73
2023-02-23T06:13:49.979Z,27.45
2023-02-23T06:16:16.744Z,28.13
2023-02-23T06:18:43.303Z,28.08
2023-02-23T06:21:09.858Z,27.23
2023-02-23T06:23:36.420Z,27.52
2023-02-23T06:26:02.923Z,27.65
2023-02-23T06:28:29.708Z,27.35
2023-02-23T06:30:56.772Z,27.63
2023-02-23T06:33:25.568Z,25.90
2023-02-23T06:35:52.847Z,25.42
2023-02-23T06:38:20.526Z,25.73
2023-02-23T06:40:47.058Z,26.08
2023-02-23T06:43:13.542Z,24.80
2023-02-23T06:45:40.853Z,26.48
2023-02-23T06:48:07.801Z,25.67
2023-02-23T06:50:34.443Z,25.27
2023-02-23T06:53:00.963Z,25.05
2023-02-23T06:55:27.516Z,27.45
2023-02-23T06:57:54.341Z,24.90
2023-02-23T07:00:21.822Z,24.48
2023-02-23T07:02:48.684Z,25.52
2023-02-23T07:05:15.398Z,23.00
2023-02-23T07:07:41.939Z,21.15
2023-02-23T07:10:09.256Z,21.63
2023-02-23T07:12:35.790Z,23.40
2023-02-23T07:15:02.312Z,21.77
2023-02-23T07:17:28.864Z,23.85
2023-02-23T07:19:55.446Z,21.52
2023-02-23T07:22:22.489Z,24.38
2023-02-23T07:24:49.105Z,22.95
2023-02-23T07:27:15.560Z,22.55
2023-02-23T07:29:42.061Z,23.85
2023-02-23T07:32:08.630Z,22.25
2023-02-23T07:34:35.264Z,22.73
2023-02-23T07:37:01.823Z,23.15
2023-02-23T07:39:28.446Z,21.58
2023-02-23T07:41:54.938Z,22.48
2023-02-23T07:44:21.451Z,21.05
2023-02-23T07:46:48.151Z,21.20
2023-02-23T07:49:14.589Z,20.73
2023-02-23T07:51:41.610Z,21.95
2023-02-23T07:54:08.096Z,19.65
2023-02-23T07:56:35.410Z,20.60
2023-02-23T07:59:02.710Z,23.23
2023-02-23T08:01:29.353Z,21.73
2023-02-23T08:03:55.894Z,21.70
2023-02-23T08:06:22.522Z,21.50
2023-02-23T08:08:49.180Z,21.80
2023-02-23T08:11:15.871Z,21.20
2023-02-23T08:13:42.788Z,22.88
2023-02-23T08:16:09.533Z,22.67
2023-02-23T08:18:36.187Z,22.05
2023-02-23T08:21:04.210Z,22.08
2023-02-23T08:23:32.582Z,21.42
2023-02-23T08:26:00.162Z,21.80
2023-02-23T08:28:27.841Z,21.42
2023-02-23T08:30:54.823Z,22.02
2023-02-23T08:33:21.974Z,22.17
2023-02-23T08:35:48.775Z,22.00
2023-02-23T08:38:16.474Z,21.55
2023-02-23T08:40:43.466Z,21.60
2023-02-23T08:43:10.158Z,20.73
2023-02-23T08:45:38.681Z,21.67
2023-02-23T08:48:06.610Z,20.98
2023-02-23T08:50:33.140Z,21.25
2023-02-23T08:52:59.646Z,21.13
2023-02-23T08:55:26.341Z,22.77
2023-02-23T08:57:52.840Z,20.48
2023-02-23T09:00:19.959Z,22.13
2023-02-23T09:02:49.712Z,22.70
2023-02-23T09:05:17.083Z,21.05
2023-02-23T09:07:47.618Z,20.00
2023-02-23T09:10:19.894Z,18.83
2023-02-23T09:12:46.491Z,20.77
2023-02-23T09:15:13.110Z,18.65
2023-02-23T09:17:39.758Z,20.45
2023-02-23T09:20:06.733Z,22.38
2023-02-23T09:22:36.765Z,21.48
2023-02-23T09:25:03.842Z,20.40
2023-02-23T09:27:30.544Z,21.27
2023-02-23T09:29:57.046Z,22.30
2023-02-23T09:32:23.672Z,21.60
2023-02-23T09:34:52.485Z,20.90
2023-02-23T09:37:19.007Z,20.65
2023-02-23T09:39:45.763Z,19.40
2023-02-23T09:42:37.064Z,19.88
2023-02-23T09:45:18.733Z,20.40
2023-02-23T09:48:13.068Z,18.63
2023-02-23T09:50:44.476Z,18.27
2023-02-23T09:53:17.329Z,18.90
2023-02-23T09:55:44.752Z,21.00
2023-02-23T09:58:26.753Z,19.38
2023-02-23T10:01:39.065Z,18.40
2023-02-23T10:04:32.377Z,18.77
2023-02-23T10:07:24.341Z,18.60
2023-02-23T10:10:05.120Z,19.33
2023-02-23T10:13:15.808Z,18.10
2023-02-23T10:15:46.097Z,17.73
2023-02-23T10:18:45.995Z,18.33
2023-02-23T10:21:21.484Z,16.67
2023-02-23T10:24:04.452Z,16.60
2023-02-23T10:26:44.158Z,16.45
2023-02-23T10:29:22.364Z,16.33
2023-02-23T10:31:55.282Z,14.63
2023-02-23T10:34:23.724Z,14.00
2023-02-23T10:36:58.419Z,15.75
2023-02-23T10:39:25.529Z,15.55
2023-02-23T10:41:53.269Z,15.35
2023-02-23T10:44:25.522Z,14.20
2023-02-23T10:46:59.766Z,15.07
2023-02-23T10:49:35.726Z,15.10
2023-02-23T10:52:03.115Z,14.00
2023-02-23T10:54:44.055Z,14.10
2023-02-23T10:57:18.901Z,13.40
2023-02-23T11:00:27.672Z,11.90
2023-02-23T11:02:58.262Z,11.82
2023-02-23T11:05:46.078Z,8.80
2023-02-23T11:08:23.943Z,9.43
2023-02-23T11:10:59.492Z,10.80
2023-02-23T11:13:35.287Z,12.13
2023-02-23T11:16:06.481Z,11.90
2023-02-23T11:18:33.535Z,12.10
2023-02-23T11:21:00.562Z,10.88
2023-02-23T11:23:34.683Z,11.02
2023-02-23T11:26:04.097Z,10.18
2023-02-23T11:28:34.983Z,9.60
2023-02-23T11:31:24.023Z,8.98
2023-02-23T11:33:54.598Z,9.85
2023-02-23T11:36:24.181Z,10.30
2023-02-23T11:39:04.101Z,9.63
2023-02-23T11:41:35.409Z,10.80
2023-02-23T11:44:06.016Z,11.00
2023-02-23T11:46:37.855Z,9.65
2023-02-23T11:49:14.712Z,9.98
2023-02-23T11:51:49.053Z,8.93
2023-02-23T11:54:35.928Z,7.95
2023-02-23T11:57:02.859Z,8.82
2023-02-23T11:59:29.906Z,6.97
2023-02-23T12:02:05.924Z,7.20
2023-02-23T12:04:39.066Z,8.77
2023-02-23T12:09:47.640Z,7.40
2023-02-23T12:12:19.651Z,5.75
2023-02-23T12:14:53.513Z,6.18
2023-02-23T12:17:26.609Z,6.75
2023-02-23T12:22:33.952Z,6.30
2023-02-23T12:25:05.103Z,5.72
2023-02-23T12:27:41.797Z,5.30
2023-02-23T12:30:17.413Z,5.75
2023-02-23T12:32:46.351Z,5.50
2023-02-23T12:35:55.362Z,6.03
2023-02-23T12:38:46.072Z,5.93
2023-02-23T12:41:21.334Z,5.47
2023-02-23T12:43:53.934Z,5.78
2023-02-23T12:46:34.240Z,5.88
2023-02-23T12:49:22.325Z,5.63
2023-02-23T12:51:57.930Z,5.18
2023-02-23T12:54:24.695Z,5.25
2023-02-23T12:56:51.234Z,5.47
2023-02-23T12:59:55.214Z,5.38
2023-02-23T13:02:44.339Z,4.90
2023-02-23T13:05:41.452Z,4.80
2023-02-23T13:08:22.027Z,4.75
2023-02-23T13:10:51.515Z,4.70
2023-02-23T13:13:50.458Z,4.30
2023-02-23T13:16:38.761Z,4.97
2023-02-23T13:19:24.137Z,4.90
2023-02-23T13:22:28.760Z,4.65
2023-02-23T13:24:59.965Z,5.00
2023-02-23T13:27:45.880Z,4.90
2023-02-23T13:30:13.122Z,4.28
2023-02-23T13:32:39.830Z,4.50
2023-02-23T13:35:13.155Z,4.63
2023-02-23T13:37:54.111Z,5.00
2023-02-23T13:40:23.595Z,4.90
2023-02-23T13:43:03.064Z,4.88
2023-02-23T13:45:48.861Z,4.85
2023-02-23T13:48:24.165Z,4.75
2023-02-23T13:50:54.544Z,4.78
2023-02-23T13:53:44.090Z,5.10
2023-02-23T13:56:21.553Z,4.85
2023-02-23T13:58:54.105Z,5.05
2023-02-23T14:01:26.198Z,5.00
2023-02-23T14:04:12.986Z,5.20
2023-02-23T14:06:50.411Z,4.00
2023-02-23T14:09:22.060Z,4.72
2023-02-23T14:11:56.630Z,4.90
2023-02-23T14:14:33.073Z,4.50
2023-02-23T14:17:09.793Z,4.97
2023-02-23T14:19:41.086Z,4.72
2023-02-23T14:22:17.740Z,4.75
2023-02-23T14:24:44.320Z,4.68
2023-02-23T14:27:10.730Z,4.88
2023-02-23T14:29:42.003Z,5.07
2023-02-23T14:32:11.448Z,4.28
2023-02-23T14:34:57.002Z,4.50
2023-02-23T14:37:36.333Z,4.25
2023-02-23T14:40:18.901Z,4.80
2023-02-23T14:42:53.768Z,4.60
2023-02-23T14:45:27.080Z,4.55
2023-02-23T14:47:57.301Z,5.05
2023-02-23T14:50:34.689Z,4.78
2023-02-23T14:53:04.406Z,5.22
2023-02-23T14:55:35.472Z,4.38
2023-02-23T14:58:03.598Z,4.90
2023-02-23T15:00:33.319Z,4.65
2023-02-23T15:03:13.916Z,4.85
2023-02-23T15:05:59.955Z,5.63
2023-02-23T15:08:28.807Z,4.80
2023-02-23T15:11:12.218Z,4.70
2023-02-23T15:16:12.960Z,4.30
2023-02-23T15:18:42.879Z,4.90
2023-02-23T15:21:17.341Z,5.00
2023-02-23T15:23:46.355Z,4.75
2023-02-23T15:26:24.166Z,4.70
2023-02-23T15:28:51.347Z,6.22
2023-02-23T15:31:19.415Z,5.03
2023-02-23T15:33:48.607Z,5.22
2023-02-23T15:36:31.492Z,4.78
2023-02-23T15:39:01.192Z,4.70
2023-02-23T15:41:27.727Z,4.38
2023-02-23T15:43:57.313Z,4.22
2023-02-23T15:46:28.637Z,4.05
2023-02-23T15:49:00.762Z,4.30
2023-02-23T15:51:27.258Z,4.53
2023-02-23T15:53:54.630Z,4.38
2023-02-23T15:56:29.063Z,4.20
2023-02-23T15:58:58.226Z,4.03
2023-02-23T16:01:28.431Z,3.70
2023-02-23T16:04:00.030Z,4.55
2023-02-23T16:06:32.986Z,4.30
2023-02-23T16:09:21.295Z,4.57
2023-02-23T16:12:01.433Z,4.13
2023-02-23T16:14:34.160Z,3.97
2023-02-23T16:17:11.324Z,4.35
2023-02-23T16:19:41.601Z,4.47
2023-02-23T16:22:20.444Z,3.50
2023-02-23T16:24:56.538Z,4.00
2023-02-23T16:27:24.834Z,3.78
2023-02-23T16:30:04.520Z,4.35
2023-02-23T16:32:38.450Z,4.03
2023-02-23T16:35:19.841Z,3.33
2023-02-23T16:38:12.616Z,4.15
2023-02-23T16:40:40.988Z,5.10
2023-02-23T16:43:08.158Z,4.38
2023-02-23T16:45:34.843Z,3.80
2023-02-23T16:48:03.323Z,4.13
2023-02-23T16:50:30.631Z,4.80
2023-02-23T16:52:57.152Z,4.60
2023-02-23T16:55:26.459Z,4.88
2023-02-23T16:57:59.891Z,4.53
2023-02-23T17:00:32.299Z,4.07
2023-02-23T17:03:00.660Z,4.07
2023-02-23T17:05:28.473Z,3.60
2023-02-23T17:07:55.312Z,4.72
2023-02-23T17:10:26.075Z,3.95
2023-02-23T17:13:07.539Z,5.15
2023-02-23T17:15:36.699Z,4.15
2023-02-23T17:18:04.114Z,3.83
2023-02-23T17:20:32.811Z,3.72
2023-02-23T17:23:01.211Z,3.72
2023-02-23T17:25:28.061Z,3.83
2023-02-23T17:27:56.181Z,4.22
2023-02-23T17:30:24.045Z,3.85
2023-02-23T17:32:56.158Z,4.30
2023-02-23T17:35:23.660Z,4.05
2023-02-23T17:37:50.531Z,4.22
2023-02-23T17:40:29.008Z,4.70
2023-02-23T17:42:58.154Z,5.35
2023-02-23T17:45:25.398Z,5.38
2023-02-23T17:47:51.990Z,4.63
2023-02-23T17:50:22.213Z,5.53
2023-02-23T17:52:50.167Z,5.97
2023-02-23T17:55:17.728Z,5.28
2023-02-23T17:57:44.249Z,5.28
2023-02-23T18:00:15.111Z,5.18
2023-02-23T18:02:43.937Z,5.25
2023-02-23T18:05:11.897Z,6.22
2023-02-23T18:07:38.647Z,5.43
2023-02-23T18:10:06.164Z,6.18
2023-02-23T18:12:33.125Z,5.90
2023-02-23T18:14:59.831Z,6.30
2023-02-23T18:17:26.444Z,6.13
2023-02-23T18:19:52.944Z,5.72
2023-02-23T18:22:19.626Z,6.93
2023-02-23T18:24:46.137Z,6.00
2023-02-23T18:27:12.695Z,5.85
2023-02-23T18:29:39.342Z,6.15
2023-02-23T18:32:08.151Z,7.07
2023-02-23T18:34:35.090Z,5.95
2023-02-23T18:37:03.639Z,6.57
2023-02-23T18:39:31.580Z,6.82
2023-02-23T18:41:58.985Z,6.22
2023-02-23T18:44:25.896Z,6.60
2023-02-23T18:46:59.430Z,8.00
2023-02-23T18:49:26.116Z,6.40
2023-02-23T18:51:52.643Z,6.18
2023-02-23T18:54:19.450Z,6.15
2023-02-23T18:56:47.847Z,6.68
2023-02-23T18:59:14.899Z,5.75
2023-02-23T19:01:45.407Z,6.40
2023-02-23T19:04:12.849Z,5.60
2023-02-23T19:06:42.423Z,8.02
2023-02-23T19:09:12.353Z,6.47
2023-02-23T19:11:40.680Z,6.72
2023-02-23T19:14:10.951Z,6.90
2023-02-23T19:16:38.506Z,5.85
2023-02-23T19:19:06.812Z,5.53
2023-02-23T19:21:33.977Z,6.03
2023-02-23T19:24:02.878Z,6.10
2023-02-23T19:26:31.350Z,5.15
2023-02-23T19:28:58.702Z,6.55
2023-02-23T19:31:26.644Z,6.10
2023-02-23T19:33:55.917Z,6.50
2023-02-23T19:36:29.556Z,5.70
2023-02-23T19:39:05.833Z,5.35
2023-02-23T19:41:33.823Z,5.57
2023-02-23T19:44:00.501Z,5.40
2023-02-23T19:46:27.647Z,6.65
2023-02-23T19:48:55.054Z,6.47
2023-02-23T19:51:22.972Z,6.20
2023-02-23T19:53:49.850Z,5.75
2023-02-23T19:56:17.056Z,6.07
2023-02-23T19:58:46.713Z,6.25
2023-02-23T20:01:19.749Z,6.63
2023-02-23T20:03:55.591Z,6.55
2023-02-23T20:06:27.615Z,6.20
2023-02-23T20:08:55.467Z,6.65
2023-02-23T20:11:23.414Z,6.78
2023-02-23T20:13:51.266Z,7.47
2023-02-23T20:16:18.049Z,6.93
2023-02-23T20:18:45.189Z,6.85
2023-02-23T20:21:13.756Z,6.18
2023-02-23T20:23:42.454Z,6.20
2023-02-23T20:26:26.494Z,7.05
2023-02-23T20:28:54.308Z,6.53
2023-02-23T20:31:27.658Z,6.70
2023-02-23T20:33:56.263Z,6.80
2023-02-23T20:36:23.821Z,7.25
2023-02-23T20:38:50.467Z,7.40
2023-02-23T20:41:17.547Z,7.35
2023-02-23T20:43:44.888Z,7.13
2023-02-23T20:46:16.477Z,6.25
2023-02-23T20:48:43.301Z,7.50
2023-02-23T20:51:13.736Z,7.50
2023-02-23T20:53:41.855Z,7.45
2023-02-23T20:56:10.202Z,7.40
2023-02-23T20:58:37.026Z,6.30
2023-02-23T21:01:06.984Z,7.10
2023-02-23T21:03:34.735Z,8.07
2023-02-23T21:06:01.362Z,8.18
2023-02-23T21:08:28.926Z,7.78
2023-02-23T21:10:55.753Z,6.93
2023-02-23T21:13:23.168Z,7.78
2023-02-23T21:16:01.119Z,6.80
2023-02-23T21:18:28.942Z,6.82
2023-02-23T21:20:59.347Z,7.45
2023-02-23T21:23:26.139Z,7.07
2023-02-23T21:25:53.054Z,6.47
2023-02-23T21:28:20.837Z,8.23
2023-02-23T21:30:47.642Z,7.18
2023-02-23T21:33:14.608Z,7.70
2023-02-23T21:35:41.188Z,7.05
2023-02-23T21:38:08.317Z,8.57
2023-02-23T21:40:35.709Z,8.30
2023-02-23T21:43:06.619Z,6.70
2023-02-23T21:45:33.171Z,7.97
2023-02-23T21:47:59.869Z,7.72
2023-02-23T21:50:26.684Z,8.95
2023-02-23T21:52:56.040Z,7.68
2023-02-23T21:55:22.820Z,8.02
2023-02-23T21:57:50.041Z,8.52
2023-02-23T22:00:16.743Z,8.55
2023-02-23T22:02:46.773Z,7.68
2023-02-23T22:05:14.796Z,7.22
2023-02-23T22:07:42.048Z,7.50
2023-02-23T22:10:09.037Z,7.00
2023-02-23T22:12:35.562Z,7.50
2023-02-23T22:15:10.282Z,7.68
2023-02-23T22:17:38.583Z,8.57
2023-02-23T22:20:07.230Z,8.52
2023-02-23T22:22:36.174Z,6.82
2023-02-23T22:25:07.965Z,8.07
2023-02-23T22:27:34.747Z,7.63
2023-02-23T22:30:01.436Z,9.48
2023-02-23T22:32:32.684Z,8.27
2023-02-23T22:35:01.029Z,9.88
2023-02-23T22:37:31.560Z,9.18
2023-02-23T22:40:00.018Z,10.15
2023-02-23T22:42:30.269Z,9.48
2023-02-23T22:44:57.234Z,10.23
2023-02-23T22:47:24.171Z,9.48
2023-02-23T22:49:50.721Z,9.57
2023-02-23T22:52:17.234Z,9.88
2023-02-23T22:54:46.171Z,9.95
2023-02-23T22:57:13.542Z,9.15
2023-02-23T22:59:40.064Z,9.32
2023-02-23T23:02:06.760Z,9.27
2023-02-23T23:04:34.417Z,9.30
2023-02-23T23:07:01.174Z,8.90
2023-02-23T23:09:28.174Z,8.07
2023-02-23T23:11:56.715Z,8.60
2023-02-23T23:14:23.682Z,8.52
2023-02-23T23:16:50.197Z,8.98
2023-02-23T23:19:23.695Z,9.75
2023-02-23T23:21:56.022Z,8.73
2023-02-23T23:24:24.211Z,8.00
2023-02-23T23:26:55.879Z,8.90
2023-02-23T23:29:23.145Z,8.25
2023-02-23T23:31:51.636Z,8.90
2023-02-23T23:34:21.566Z,8.18
2023-02-23T23:36:50.035Z,8.57
2023-02-23T23:39:18.366Z,8.90
2023-02-23T23:41:47.988Z,8.45
2023-02-23T23:44:21.221Z,8.77
2023-02-23T23:46:50.736Z,8.93
2023-02-23T23:49:19.942Z,8.23
2023-02-23T23:51:50.153Z,7.95
2023-02-23T23:54:22.745Z,8.63
2023-02-23T23:56:50.678Z,8.77
2023-02-23T23:59:20.413Z,8.43
